Time;durP1;ratioP1;P1;durP2;ratioP2;P2;SDS_P1;SDS_P2;PMS_P1;PMS_P2;Temp;Humidity;BMP_temperature;BMP_pressure;BME280_temperature;BME280_humidity;BME280_pressure;Samples;Min_cycle;Max_cycle;Signal;HPM_P1;HPM_P2
2022/02/12 00:00:11;;;;;;;14.75;2.95;;;3.30;99.90;;;;;;6280696;22;20061;-90
2022/02/12 00:02:37;;;;;;;8.27;2.78;;;3.30;99.90;;;;;;6280626;22;20013;-90
2022/02/12 00:05:03;;;;;;;5.95;2.33;;;3.30;99.90;;;;;;6280531;22;20113;-90
2022/02/12 00:07:29;;;;;;;10.50;2.70;;;3.30;99.90;;;;;;6280507;22;20033;-88
2022/02/12 00:09:54;;;;;;;12.70;3.08;;;3.30;99.90;;;;;;6280344;22;20007;-91
2022/02/12 00:12:20;;;;;;;10.45;3.05;;;3.30;99.90;;;;;;6280711;22;20004;-91
2022/02/12 00:14:46;;;;;;;9.02;2.00;;;3.30;99.90;;;;;;6280184;22;20090;-89
2022/02/12 00:17:12;;;;;;;10.00;2.85;;;3.30;99.90;;;;;;6280978;22;20004;-90
2022/02/12 00:19:38;;;;;;;6.25;2.35;;;3.30;99.90;;;;;;6280723;22;20022;-90
2022/02/12 00:22:04;;;;;;;13.88;2.60;;;3.30;99.90;;;;;;6281109;22;20003;-91
2022/02/12 00:24:30;;;;;;;17.40;3.15;;;3.30;99.90;;;;;;6281029;22;20035;-91
2022/02/12 00:26:55;;;;;;;12.88;2.72;;;3.30;99.90;;;;;;6282984;22;20000;-90
2022/02/12 00:29:21;;;;;;;11.57;3.00;;;3.30;99.90;;;;;;6282868;22;20007;-90
2022/02/12 00:31:47;;;;;;;13.07;2.63;;;3.30;99.90;;;;;;6282907;22;20015;-91
2022/02/12 00:34:13;;;;;;;9.00;2.42;;;3.30;99.90;;;;;;6282861;22;20010;-91
2022/02/12 00:36:38;;;;;;;13.70;2.72;;;3.30;99.90;;;;;;6283013;22;20014;-91
2022/02/12 00:39:05;;;;;;;11.88;2.58;;;3.30;99.90;;;;;;6282685;22;20029;-91
2022/02/12 00:41:31;;;;;;;10.77;2.70;;;3.30;99.90;;;;;;6282651;22;20000;-92
2022/02/12 00:43:57;;;;;;;15.48;3.55;;;3.30;99.90;;;;;;6282976;22;20007;-91
2022/02/12 00:46:23;;;;;;;9.07;2.58;;;3.30;99.90;;;;;;6284937;22;20003;-91
2022/02/12 00:48:48;;;;;;;11.20;2.83;;;3.30;99.90;;;;;;6285894;22;20065;-90
2022/02/12 00:51:14;;;;;;;12.30;2.72;;;3.30;99.90;;;;;;6286367;22;19999;-91
2022/02/12 00:53:41;;;;;;;10.23;2.75;;;3.30;99.90;;;;;;6286357;22;20009;-91
2022/02/12 00:56:07;;;;;;;11.85;3.65;;;3.30;99.90;;;;;;6287571;22;20004;-91
2022/02/12 00:58:33;;;;;;;15.00;3.40;;;3.30;99.90;;;;;;6290590;22;20027;-91
2022/02/12 01:00:58;;;;;;;7.97;2.28;;;3.30;99.90;;;;;;6286507;22;20003;-91
2022/02/12 01:03:24;;;;;;;7.35;2.28;;;3.30;99.90;;;;;;6282572;22;20345;-89
2022/02/12 01:05:50;;;;;;;10.45;2.78;;;3.30;99.90;;;;;;6282652;22;20060;-90
2022/02/12 01:08:16;;;;;;;7.20;2.30;;;3.40;99.90;;;;;;6282469;22;20014;-91
2022/02/12 01:10:41;;;;;;;13.63;2.45;;;3.40;99.90;;;;;;6283031;22;20041;-90
2022/02/12 01:13:07;;;;;;;6.10;2.60;;;3.40;99.90;;;;;;6282731;22;20133;-89
2022/02/12 01:15:33;;;;;;;9.40;2.50;;;3.40;99.90;;;;;;6282563;22;20133;-90
2022/02/12 01:18:03;;;;;;;10.63;2.72;;;3.40;99.90;;;;;;6282778;22;20483;-90
2022/02/12 01:20:29;;;;;;;11.13;2.43;;;3.40;99.90;;;;;;6282808;22;20003;-90
2022/02/12 01:22:55;;;;;;;15.38;2.20;;;3.40;99.90;;;;;;6282440;22;20441;-90
2022/02/12 01:25:21;;;;;;;7.88;2.45;;;3.40;99.90;;;;;;6282225;22;20015;-89
2022/02/12 01:27:47;;;;;;;12.57;4.22;;;3.40;99.90;;;;;;6282982;22;20431;-89
2022/02/12 01:30:13;;;;;;;12.75;3.17;;;3.40;99.90;;;;;;6282021;22;20050;-90
2022/02/12 01:32:40;;;;;;;10.70;2.05;;;3.40;99.90;;;;;;6282162;22;20015;-89
2022/02/12 01:35:10;;;;;;;14.77;3.35;;;3.40;99.90;;;;;;6281638;22;20431;-90
2022/02/12 01:37:37;;;;;;;16.40;3.92;;;3.50;99.90;;;;;;6281652;22;20007;-89
2022/02/12 01:40:04;;;;;;;13.82;2.47;;;3.40;99.90;;;;;;6282083;22;20039;-89
2022/02/12 01:42:29;;;;;;;11.85;2.60;;;3.40;99.90;;;;;;6281870;22;20010;-89
2022/02/12 01:44:58;;;;;;;7.15;1.70;;;3.50;99.90;;;;;;6281693;22;20015;-89
2022/02/12 01:47:24;;;;;;;13.55;2.72;;;3.40;99.90;;;;;;6282176;22;20014;-89
2022/02/12 01:49:49;;;;;;;10.25;3.20;;;3.40;99.90;;;;;;6281796;22;20098;-89
2022/02/12 01:52:15;;;;;;;11.43;2.88;;;3.40;99.90;;;;;;6282272;22;20004;-89
2022/02/12 01:54:41;;;;;;;8.43;2.35;;;3.40;99.90;;;;;;6282766;22;20060;-89
2022/02/12 01:57:08;;;;;;;12.18;2.30;;;3.40;99.90;;;;;;6284378;22;20003;-92
2022/02/12 01:59:34;;;;;;;12.95;2.67;;;3.40;99.90;;;;;;6282158;22;20014;-90
2022/02/12 02:02:02;;;;;;;8.73;2.78;;;3.40;99.90;;;;;;6281911;22;20426;-89
2022/02/12 02:04:28;;;;;;;11.45;2.70;;;3.40;99.90;;;;;;6281684;22;20431;-90
2022/02/12 02:06:54;;;;;;;19.58;3.33;;;3.40;99.90;;;;;;6282216;22;20037;-90
2022/02/12 02:09:20;;;;;;;9.85;2.60;;;3.40;99.90;;;;;;6281609;22;20086;-90
2022/02/12 02:11:47;;;;;;;10.50;2.90;;;3.40;99.90;;;;;;6281754;22;20007;-90
2022/02/12 02:14:14;;;;;;;8.93;2.47;;;3.40;99.90;;;;;;6281542;22;20014;-90
2022/02/12 02:16:41;;;;;;;15.27;2.88;;;3.40;99.90;;;;;;6281927;22;20053;-88
2022/02/12 02:19:08;;;;;;;15.88;3.67;;;3.40;99.90;;;;;;6281540;22;20015;-87
2022/02/12 02:21:35;;;;;;;11.95;3.55;;;3.30;99.90;;;;;;6281621;22;20072;-91
2022/02/12 02:24:01;;;;;;;17.50;3.38;;;3.30;99.90;;;;;;6281547;22;20011;-90
2022/02/12 02:26:27;;;;;;;15.82;4.13;;;3.30;99.90;;;;;;6281705;22;20007;-90
2022/02/12 02:28:52;;;;;;;16.30;3.67;;;3.30;99.90;;;;;;6281401;22;20434;-90
2022/02/12 02:31:18;;;;;;;11.68;3.55;;;3.30;99.90;;;;;;6308439;22;20011;-90
2022/02/12 02:33:44;;;;;;;13.57;3.30;;;3.30;99.90;;;;;;6281472;22;20003;-90
2022/02/12 02:36:10;;;;;;;12.15;2.83;;;3.30;99.90;;;;;;6281568;22;20015;-90
2022/02/12 02:41:07;;;;;;;9.70;3.17;;;3.30;99.90;;;;;;6256588;22;20362;-90
2022/02/12 02:43:33;;;;;;;9.82;2.78;;;3.30;99.90;;;;;;6280788;22;20068;-90
2022/02/12 02:45:59;;;;;;;12.93;3.05;;;3.30;99.90;;;;;;6281379;22;20004;-90
2022/02/12 02:48:24;;;;;;;13.68;2.78;;;3.30;99.90;;;;;;6283603;22;20007;-90
2022/02/12 02:56:19;;;;;;;16.70;3.92;;;3.30;99.90;;;;;;6308653;22;20018;-91
2022/02/12 02:58:49;;;;;;;8.85;2.45;;;3.40;99.90;;;;;;6280764;22;20003;-90
2022/02/12 03:01:19;;;;;;;;;;;3.40;99.90;;;;;;6309086;22;20007;-91
2022/02/12 03:03:47;;;;;;;13.93;2.72;;;3.40;99.90;;;;;;6280827;22;19902;-90
2022/02/12 03:06:15;;;;;;;8.75;2.53;;;3.40;99.90;;;;;;6280974;22;20426;-91
2022/02/12 03:08:41;;;;;;;7.63;3.00;;;3.40;99.90;;;;;;6280726;22;20085;-91
2022/02/12 03:11:08;;;;;;;10.95;3.05;;;3.40;99.90;;;;;;6308455;22;20022;-91
2022/02/12 03:13:34;;;;;;;12.50;2.65;;;3.50;99.90;;;;;;6281152;22;20034;-90
2022/02/12 03:16:00;;;;;;;13.80;3.25;;;3.40;99.90;;;;;;6281228;22;19999;-90
2022/02/12 03:18:27;;;;;;;10.35;2.70;;;3.40;99.90;;;;;;6281624;22;20049;-91
2022/02/12 03:20:53;;;;;;;12.07;2.45;;;3.50;99.90;;;;;;6281178;22;20030;-91
2022/02/12 03:23:19;;;;;;;7.55;3.08;;;3.50;99.90;;;;;;6280417;22;20090;-90
2022/02/12 03:25:45;;;;;;;10.82;3.92;;;3.50;99.90;;;;;;6280964;22;20038;-90
2022/02/12 03:28:11;;;;;;;9.07;2.95;;;3.50;99.90;;;;;;6281359;22;20100;-91
2022/02/12 03:30:40;;;;;;;10.13;2.92;;;3.50;99.90;;;;;;6280863;22;20034;-92
2022/02/12 03:33:07;;;;;;;12.45;3.00;;;3.50;99.90;;;;;;6280790;22;20003;-91
2022/02/12 03:35:36;;;;;;;8.75;2.30;;;3.50;99.90;;;;;;6278650;22;20017;-90
2022/02/12 03:38:06;;;;;;;5.88;2.22;;;3.50;99.90;;;;;;6280577;22;20003;-90
2022/02/12 03:40:32;;;;;;;11.50;2.92;;;3.50;99.90;;;;;;6281666;22;20423;-90
2022/02/12 03:42:58;;;;;;;7.05;2.25;;;3.50;99.90;;;;;;6281502;22;20000;-90
2022/02/12 03:45:23;;;;;;;10.43;2.75;;;3.60;99.90;;;;;;6280667;22;20098;-90
2022/02/12 03:47:50;;;;;;;12.32;2.88;;;3.50;99.90;;;;;;6280408;22;20006;-90
2022/02/12 03:50:16;;;;;;;13.88;2.92;;;3.60;99.90;;;;;;6280477;22;20008;-90
2022/02/12 03:52:42;;;;;;;6.53;2.67;;;3.60;99.90;;;;;;6280365;22;20035;-90
2022/02/12 03:55:08;;;;;;;12.00;3.22;;;3.60;99.90;;;;;;6280844;22;20373;-90
2022/02/12 03:57:36;;;;;;;10.18;3.35;;;3.60;99.90;;;;;;6280160;22;20003;-89
2022/02/12 04:00:11;;;;;;;8.30;2.40;;;3.60;99.90;;;;;;6281575;22;20003;-92
2022/02/12 04:02:41;;;;;;;5.65;1.52;;;3.60;99.90;;;;;;6282560;22;20033;-90
2022/02/12 04:05:14;;;;;;;9.50;2.50;;;3.60;99.90;;;;;;6282339;22;20015;-90
2022/02/12 04:07:41;;;;;;;8.57;1.85;;;3.70;99.90;;;;;;6282577;22;20000;-91
2022/02/12 04:10:13;;;;;;;6.97;2.00;;;3.70;99.90;;;;;;6282903;22;20011;-90
2022/02/12 04:12:40;;;;;;;10.07;2.10;;;3.70;99.90;;;;;;6282882;22;20003;-91
2022/02/12 04:15:06;;;;;;;6.55;1.80;;;3.70;99.90;;;;;;6282861;22;20007;-91
2022/02/12 04:17:34;;;;;;;8.65;2.28;;;3.80;99.90;;;;;;6282332;22;20012;-90
2022/02/12 04:20:09;;;;;;;2.33;0.98;;;3.80;99.90;;;;;;6282905;22;20007;-91
2022/02/12 04:22:37;;;;;;;9.10;2.05;;;3.80;99.90;;;;;;6282928;22;20003;-90
2022/02/12 04:25:06;;;;;;;9.80;2.25;;;3.90;99.90;;;;;;6282700;22;20035;-91
2022/02/12 04:27:33;;;;;;;14.18;2.40;;;3.90;99.90;;;;;;6282654;22;20015;-91
2022/02/12 04:29:59;;;;;;;7.88;2.40;;;3.80;99.90;;;;;;6282896;22;20015;-89
2022/02/12 04:32:25;;;;;;;6.70;1.50;;;3.90;99.90;;;;;;6282389;22;20443;-91
2022/02/12 04:34:52;;;;;;;3.75;1.60;;;3.90;99.90;;;;;;6282595;22;20104;-90
2022/02/12 04:37:19;;;;;;;10.98;2.20;;;3.80;99.90;;;;;;6282660;22;20011;-90
2022/02/12 04:39:46;;;;;;;8.80;2.17;;;3.90;99.90;;;;;;6282727;22;20010;-89
2022/02/12 04:42:11;;;;;;;10.07;1.95;;;3.90;99.90;;;;;;6286452;22;20003;-90
2022/02/12 04:44:42;;;;;;;3.90;1.58;;;3.90;99.90;;;;;;6282787;22;20439;-89
2022/02/12 04:47:08;;;;;;;8.57;2.33;;;3.90;99.90;;;;;;6282111;22;20031;-90
2022/02/12 04:49:35;;;;;;;4.47;1.73;;;3.90;99.90;;;;;;6282043;22;20015;-90
2022/02/12 04:52:01;;;;;;;5.13;1.58;;;4.00;99.90;;;;;;6282228;22;20014;-89
2022/02/12 04:54:26;;;;;;;8.52;1.90;;;4.00;99.90;;;;;;6282114;22;20011;-89
2022/02/12 04:56:52;;;;;;;15.23;1.90;;;4.00;99.90;;;;;;6282518;22;19999;-89
2022/02/12 04:59:17;;;;;;;10.52;1.88;;;4.10;99.90;;;;;;6282212;22;20002;-89
2022/02/12 05:01:44;;;;;;;11.85;1.73;;;4.10;99.90;;;;;;6283026;22;19995;-90
2022/02/12 05:04:10;;;;;;;5.53;1.63;;;4.10;99.90;;;;;;6283045;22;20015;-90
2022/02/12 05:06:36;;;;;;;10.40;1.42;;;4.10;99.90;;;;;;6284624;22;20398;-90
2022/02/12 05:09:02;;;;;;;9.20;2.00;;;4.10;99.90;;;;;;6283876;22;20007;-89
2022/02/12 05:11:27;;;;;;;10.48;1.98;;;4.10;99.90;;;;;;6283021;22;20321;-90
2022/02/12 05:13:53;;;;;;;12.45;1.75;;;4.10;99.90;;;;;;6282037;22;20062;-89
2022/02/12 05:16:19;;;;;;;6.55;1.30;;;4.20;99.90;;;;;;6282390;22;20458;-90
2022/02/12 05:18:45;;;;;;;11.27;1.88;;;4.20;99.90;;;;;;6282362;22;19995;-90
2022/02/12 05:21:11;;;;;;;10.25;1.50;;;4.20;99.90;;;;;;6281883;22;20018;-89
2022/02/12 05:23:37;;;;;;;9.07;1.40;;;4.20;99.90;;;;;;6282241;22;20007;-88
2022/02/12 05:26:02;;;;;;;6.28;1.95;;;4.30;99.90;;;;;;6281912;22;20098;-89
2022/02/12 05:28:28;;;;;;;8.95;1.65;;;4.30;99.90;;;;;;6282319;22;20000;-88
2022/02/12 05:30:54;;;;;;;7.05;1.63;;;4.30;99.90;;;;;;6282030;22;20007;-91
2022/02/12 05:33:19;;;;;;;10.55;1.40;;;4.30;99.90;;;;;;6282018;22;20003;-89
2022/02/12 05:35:45;;;;;;;10.07;1.60;;;4.30;99.90;;;;;;6282410;22;20338;-89
2022/02/12 05:38:12;;;;;;;11.25;1.95;;;4.40;99.90;;;;;;6281699;22;20061;-90
2022/02/12 05:40:38;;;;;;;7.05;1.80;;;4.40;99.90;;;;;;6281670;22;20011;-90
2022/02/12 05:43:03;;;;;;;9.45;1.55;;;4.40;99.90;;;;;;6282160;22;20000;-89
2022/02/12 05:45:30;;;;;;;6.88;1.45;;;4.40;99.90;;;;;;6281514;22;20015;-91
2022/02/12 05:47:55;;;;;;;10.13;1.50;;;4.50;99.90;;;;;;6281365;22;20086;-89
2022/02/12 05:50:27;;;;;;;13.60;1.60;;;4.50;99.90;;;;;;6281838;22;20076;-90
2022/02/12 05:52:52;;;;;;;9.93;1.40;;;4.50;99.90;;;;;;6281096;22;20026;-89
2022/02/12 05:55:18;;;;;;;8.98;1.40;;;4.50;99.90;;;;;;6281513;22;20003;-89
2022/02/12 05:57:44;;;;;;;4.95;1.20;;;4.50;99.90;;;;;;6308404;22;20007;-89
2022/02/12 06:00:10;;;;;;;9.85;1.52;;;4.50;99.90;;;;;;6281448;22;19999;-91
2022/02/12 06:02:36;;;;;;;6.68;1.50;;;4.50;99.90;;;;;;6280718;22;20003;-91
2022/02/12 06:05:03;;;;;;;7.20;1.10;;;4.50;99.90;;;;;;6281520;22;20049;-89
2022/02/12 06:07:28;;;;;;;8.20;1.42;;;4.50;99.90;;;;;;6281251;22;20010;-90
2022/02/12 06:09:54;;;;;;;3.97;1.23;;;4.50;99.90;;;;;;6281507;22;20008;-88
2022/02/12 06:12:20;;;;;;;10.77;1.23;;;4.50;99.90;;;;;;6281265;22;20003;-89
2022/02/12 06:14:45;;;;;;;4.97;1.10;;;4.50;99.90;;;;;;6281027;22;20407;-89
2022/02/12 06:17:11;;;;;;;7.88;1.80;;;4.50;99.90;;;;;;6280491;22;20003;-89
2022/02/12 06:19:37;;;;;;;3.63;1.42;;;4.50;99.90;;;;;;6281351;22;20092;-91
2022/02/12 06:22:03;;;;;;;12.05;2.70;;;4.50;99.90;;;;;;6281815;22;20418;-89
2022/02/12 06:24:28;;;;;;;16.00;1.63;;;4.40;99.90;;;;;;6281331;22;20034;-90
2022/02/12 06:26:57;;;;;;;6.13;1.17;;;4.40;99.90;;;;;;6281733;22;20007;-89
2022/02/12 06:29:24;;;;;;;7.95;1.75;;;4.50;99.90;;;;;;6281380;22;20014;-90
2022/02/12 06:31:49;;;;;;;5.00;1.63;;;4.50;99.90;;;;;;6281818;22;20038;-91
2022/02/12 06:34:15;;;;;;;5.63;1.48;;;4.40;99.90;;;;;;6281882;22;20460;-91
2022/02/12 06:36:41;;;;;;;8.13;1.50;;;4.40;99.90;;;;;;6284310;22;20522;-89
2022/02/12 06:39:07;;;;;;;9.50;1.73;;;4.40;99.90;;;;;;6290896;22;20008;-89
2022/02/12 06:41:32;;;;;;;5.85;1.60;;;4.40;99.90;;;;;;6298945;22;20015;-91
2022/02/12 06:43:58;;;;;;;8.52;1.85;;;4.40;99.90;;;;;;6295235;22;20071;-90
2022/02/12 06:46:23;;;;;;;8.48;1.50;;;4.40;99.90;;;;;;6298021;22;19994;-90
2022/02/12 06:48:49;;;;;;;4.38;1.05;;;4.30;99.90;;;;;;6297892;22;20047;-90
2022/02/12 06:51:17;;;;;;;4.07;1.13;;;4.30;99.90;;;;;;6287959;22;20006;-90
2022/02/12 06:53:43;;;;;;;1.48;0.95;;;4.40;99.90;;;;;;6285596;22;20100;-90
2022/02/12 06:56:09;;;;;;;7.00;1.20;;;4.40;99.90;;;;;;6285939;22;20011;-91
2022/02/12 06:58:35;;;;;;;9.85;1.20;;;4.40;99.90;;;;;;6282646;22;20496;-89
2022/02/12 07:01:01;;;;;;;7.40;1.25;;;4.40;99.90;;;;;;6280262;22;20003;-90
2022/02/12 07:03:27;;;;;;;8.88;1.13;;;4.40;99.90;;;;;;6279700;22;20423;-92
2022/02/12 07:05:52;;;;;;;6.82;1.15;;;4.40;99.90;;;;;;6280447;22;20018;-91
2022/02/12 07:08:18;;;;;;;8.55;1.08;;;4.50;99.90;;;;;;6280306;22;20058;-92
2022/02/12 07:10:44;;;;;;;7.72;1.10;;;4.50;99.90;;;;;;6281539;22;20011;-90
2022/02/12 07:13:11;;;;;;;11.57;1.50;;;4.50;99.90;;;;;;6285083;22;20085;-88
2022/02/12 07:15:37;;;;;;;9.75;1.15;;;4.40;99.90;;;;;;6282709;22;20003;-90
2022/02/12 07:18:03;;;;;;;5.05;0.95;;;4.50;99.90;;;;;;6280368;22;20068;-90
2022/02/12 07:20:29;;;;;;;8.88;1.45;;;4.50;99.90;;;;;;6280365;22;20007;-90
2022/02/12 07:22:56;;;;;;;3.47;1.13;;;4.40;99.90;;;;;;6275205;22;20014;-89
2022/02/12 07:25:21;;;;;;;6.60;0.85;;;4.50;99.90;;;;;;6279350;22;20115;-89
2022/02/12 07:27:47;;;;;;;3.85;1.42;;;4.50;99.90;;;;;;6279149;22;20030;-89
2022/02/12 07:30:16;;;;;;;11.90;1.30;;;4.40;99.90;;;;;;6279186;22;20018;-91
2022/02/12 07:32:43;;;;;;;7.65;1.20;;;4.50;99.90;;;;;;6278647;22;20007;-91
2022/02/12 07:35:11;;;;;;;9.63;1.20;;;4.50;99.90;;;;;;6279747;22;20045;-89
2022/02/12 07:37:41;;;;;;;9.35;1.50;;;4.50;99.90;;;;;;6276715;22;20000;-90
2022/02/12 07:40:08;;;;;;;13.18;2.83;;;4.50;99.90;;;;;;6277553;22;20003;-90
2022/02/12 07:42:34;;;;;;;6.40;0.77;;;4.50;99.90;;;;;;6277406;22;20022;-90
2022/02/12 07:44:59;;;;;;;4.40;1.02;;;4.50;99.90;;;;;;6279508;22;20007;-89
2022/02/12 07:47:25;;;;;;;7.03;1.02;;;4.60;99.90;;;;;;6280387;22;19999;-90
2022/02/12 07:49:51;;;;;;;3.83;1.23;;;4.60;99.90;;;;;;6279029;22;20256;-89
2022/02/12 07:52:18;;;;;;;7.93;2.08;;;4.70;99.90;;;;;;6279020;22;20418;-90
2022/02/12 07:54:44;;;;;;;7.18;1.00;;;4.70;99.90;;;;;;6283392;22;20007;-92
2022/02/12 07:57:10;;;;;;;7.30;1.20;;;4.70;99.90;;;;;;6280564;22;20006;-90
2022/02/12 07:59:35;;;;;;;7.82;1.00;;;4.70;99.90;;;;;;6281883;22;20388;-92
2022/02/12 08:02:01;;;;;;;5.38;1.20;;;4.60;99.90;;;;;;6281540;22;20091;-91
2022/02/12 08:04:28;;;;;;;10.70;1.27;;;4.60;99.90;;;;;;6281155;22;20522;-91
2022/02/12 08:09:39;;;;;;;9.15;3.15;;;4.60;99.90;;;;;;6309130;22;20014;-91
2022/02/12 08:12:13;;;;;;;11.52;1.33;;;4.60;99.90;;;;;;6281188;22;20418;-92
2022/02/12 08:14:53;;;;;;;7.72;1.92;;;4.60;99.90;;;;;;6280655;22;20344;-90
2022/02/12 08:17:20;;;;;;;14.68;4.63;;;4.60;99.90;;;;;;6290414;22;20003;-92
2022/02/12 08:19:48;;;;;;;11.48;1.23;;;4.70;99.90;;;;;;6295544;22;20038;-94
2022/02/12 08:22:15;;;;;;;11.40;1.83;;;4.70;99.90;;;;;;6283053;22;20090;-92
2022/02/12 08:24:40;;;;;;;5.00;1.10;;;4.70;99.90;;;;;;6281913;22;20040;-91
2022/02/12 08:27:09;;;;;;;13.60;1.15;;;4.70;99.90;;;;;;6282322;22;19999;-91
2022/02/12 08:29:36;;;;;;;7.97;1.55;;;4.70;99.90;;;;;;6286043;22;20030;-91
2022/02/12 08:32:02;;;;;;;8.35;1.00;;;4.80;99.90;;;;;;6286472;22;20033;-91
2022/02/12 08:34:29;;;;;;;14.73;1.48;;;4.80;99.90;;;;;;6283494;22;20011;-91
2022/02/12 08:36:56;;;;;;;9.45;1.35;;;4.80;99.90;;;;;;6282164;22;20007;-91
2022/02/12 08:39:22;;;;;;;1.88;1.00;;;4.80;99.90;;;;;;6282737;22;20347;-92
2022/02/12 08:41:49;;;;;;;7.00;1.38;;;4.80;99.90;;;;;;6281500;22;20015;-91
2022/02/12 08:44:15;;;;;;;7.82;1.50;;;4.80;99.90;;;;;;6281631;22;20011;-92
2022/02/12 08:46:41;;;;;;;5.25;1.48;;;4.80;99.90;;;;;;6282589;22;20003;-91
2022/02/12 08:49:07;;;;;;;4.00;1.08;;;4.90;99.90;;;;;;6283262;22;20010;-91
2022/02/12 08:51:37;;;;;;;6.72;1.30;;;4.80;99.90;;;;;;6283049;22;20090;-91
2022/02/12 08:54:11;;;;;;;15.70;1.30;;;4.90;99.90;;;;;;6283170;22;20014;-92
2022/02/12 08:56:38;;;;;;;5.50;1.30;;;4.90;99.90;;;;;;6283742;22;20205;-92
2022/02/12 08:59:05;;;;;;;6.13;1.48;;;4.90;99.90;;;;;;6283055;22;20023;-92
2022/02/12 09:01:32;;;;;;;8.45;1.45;;;4.90;99.90;;;;;;6283033;22;20026;-91
2022/02/12 09:03:58;;;;;;;4.65;1.10;;;4.90;99.90;;;;;;6282691;22;20014;-91
2022/02/12 09:06:26;;;;;;;12.13;1.35;;;5.00;99.90;;;;;;6282986;22;20007;-92
2022/02/12 09:08:52;;;;;;;3.10;0.85;;;5.00;99.90;;;;;;6282628;22;19999;-92
2022/02/12 09:11:19;;;;;;;6.93;1.40;;;5.10;99.90;;;;;;6282850;22;20163;-93
2022/02/12 09:13:49;;;;;;;8.48;1.90;;;5.10;99.90;;;;;;6282791;22;20354;-91
2022/02/12 09:16:16;;;;;;;10.63;1.92;;;5.10;99.90;;;;;;6282905;22;19996;-90
2022/02/12 09:18:42;;;;;;;8.00;1.38;;;5.20;99.90;;;;;;6283647;22;20011;-91
2022/02/12 09:21:08;;;;;;;11.18;1.20;;;5.20;99.90;;;;;;6283360;22;20006;-91
2022/02/12 09:23:34;;;;;;;9.00;1.65;;;5.30;99.90;;;;;;6282828;22;20474;-90
2022/02/12 09:25:59;;;;;;;4.53;1.40;;;5.30;99.90;;;;;;6283471;22;20439;-92
2022/02/12 09:28:25;;;;;;;6.10;1.13;;;5.40;99.90;;;;;;6282772;22;19999;-93
2022/02/12 09:30:51;;;;;;;14.10;1.85;;;5.50;99.90;;;;;;6282700;22;20007;-91
2022/02/12 09:33:17;;;;;;;9.98;1.55;;;5.60;99.90;;;;;;6283248;22;20087;-91
2022/02/12 09:35:43;;;;;;;7.57;1.20;;;5.60;99.90;;;;;;6282594;22;20007;-92
2022/02/12 09:38:10;;;;;;;7.93;1.20;;;5.60;99.90;;;;;;6283478;22;20003;-91
2022/02/12 09:40:58;;;;;;;9.70;1.70;;;5.60;99.90;;;;;;6283466;22;20041;-91
2022/02/12 09:43:26;;;;;;;5.97;1.50;;;5.60;99.90;;;;;;6283296;22;20010;-90
2022/02/12 09:46:21;;;;;;;9.45;1.67;;;5.60;99.90;;;;;;6282630;22;20123;-92
2022/02/12 09:48:47;;;;;;;10.45;1.73;;;5.60;99.90;;;;;;6257534;22;20010;-92
2022/02/12 09:51:13;;;;;;;9.55;1.38;;;5.60;99.90;;;;;;6282654;22;20019;-92
2022/02/12 09:53:39;;;;;;;6.82;1.55;;;5.60;99.90;;;;;;6282738;22;20011;-91
2022/02/12 09:56:06;;;;;;;9.52;2.72;;;5.60;99.90;;;;;;6282684;22;20006;-92
2022/02/12 09:58:32;;;;;;;6.28;1.35;;;5.60;99.90;;;;;;6281918;22;20060;-91
2022/02/12 10:00:57;;;;;;;11.35;2.10;;;5.50;99.90;;;;;;6282747;22;19995;-92
2022/02/12 10:03:23;;;;;;;7.18;1.67;;;5.50;99.90;;;;;;6282788;22;20022;-92
2022/02/12 10:05:51;;;;;;;5.57;1.90;;;5.50;99.90;;;;;;6283038;22;20035;-93
2022/02/12 10:08:17;;;;;;;9.88;1.45;;;5.50;99.90;;;;;;6282760;22;20246;-92
2022/02/12 10:10:48;;;;;;;5.30;1.23;;;5.50;99.90;;;;;;6283562;22;20015;-93
2022/02/12 10:13:22;;;;;;;9.10;1.70;;;5.60;99.90;;;;;;6282444;22;20469;-93
2022/02/12 10:15:56;;;;;;;5.45;1.80;;;5.60;99.90;;;;;;6282289;22;20072;-92
2022/02/12 10:18:35;;;;;;;9.00;1.65;;;5.60;99.90;;;;;;6282757;22;20003;-93
2022/02/12 10:21:02;;;;;;;10.30;1.90;;;5.70;99.90;;;;;;6282708;22;20087;-91
2022/02/12 10:23:30;;;;;;;10.48;1.55;;;5.70;99.90;;;;;;6286282;22;20391;-92
2022/02/12 10:26:01;;;;;;;10.93;1.85;;;5.70;99.90;;;;;;6288582;22;20014;-94
2022/02/12 10:28:30;;;;;;;4.45;1.35;;;5.70;99.90;;;;;;6282146;22;20017;-92
2022/02/12 10:31:00;;;;;;;10.25;1.65;;;5.70;99.90;;;;;;6282545;22;20457;-93
2022/02/12 10:33:27;;;;;;;8.70;2.08;;;5.70;99.90;;;;;;6282669;22;20012;-92
2022/02/12 10:35:58;;;;;;;9.00;1.70;;;5.70;99.90;;;;;;6282926;22;20341;-92
2022/02/12 10:38:26;;;;;;;7.95;1.65;;;5.80;99.90;;;;;;6282224;22;19999;-92
2022/02/12 10:41:09;;;;;;;6.82;1.58;;;5.80;99.90;;;;;;6282952;22;20372;-93
2022/02/12 10:43:40;;;;;;;6.10;0.95;;;5.80;99.90;;;;;;6282386;22;20019;-93
2022/02/12 10:46:06;;;;;;;10.68;1.83;;;5.80;99.90;;;;;;6282760;22;20003;-92
2022/02/12 10:48:37;;;;;;;11.90;1.92;;;5.90;99.90;;;;;;6282114;22;20109;-92
2022/02/12 10:51:11;;;;;;;10.82;2.05;;;5.90;99.90;;;;;;6282245;22;20015;-91
2022/02/12 10:54:06;;;;;;;15.50;3.95;;;5.90;99.90;;;;;;6281725;22;20127;-93
2022/02/12 10:56:47;;;;;;;8.52;1.80;;;6.00;99.90;;;;;;6282632;22;20091;-92
2022/02/12 10:59:18;;;;;;;2.85;1.15;;;6.00;99.90;;;;;;6282151;22;20007;-90
2022/02/12 11:01:44;;;;;;;;;;;6.00;99.90;;;;;;6282397;22;20077;-91
2022/02/12 11:04:10;;;;;;;6.38;1.35;;;6.00;99.90;;;;;;6282041;22;19914;-91
2022/02/12 11:06:36;;;;;;;9.60;1.85;;;6.00;99.90;;;;;;6282226;22;20007;-92
2022/02/12 11:09:03;;;;;;;6.03;1.40;;;6.00;99.90;;;;;;6282103;22;20070;-92
2022/02/12 11:11:31;;;;;;;8.80;1.80;;;6.00;99.90;;;;;;6282649;22;19999;-92
2022/02/12 11:13:58;;;;;;;7.85;1.60;;;6.00;99.90;;;;;;6281407;22;20003;-91
2022/02/12 11:16:27;;;;;;;7.57;3.00;;;6.00;99.90;;;;;;6281993;22;20007;-92
2022/02/12 11:18:57;;;;;;;10.02;1.80;;;6.00;99.90;;;;;;6286527;22;20007;-91
2022/02/12 11:21:27;;;;;;;7.82;1.70;;;6.00;99.90;;;;;;6288673;22;20079;-91
2022/02/12 11:24:04;;;;;;;10.95;1.40;;;6.00;99.90;;;;;;6282998;22;20018;-92
2022/02/12 11:26:43;;;;;;;9.52;2.20;;;6.00;99.90;;;;;;6283762;22;20000;-91
2022/02/12 11:29:40;;;;;;;16.77;2.72;;;6.00;99.90;;;;;;6283445;22;20088;-90
2022/02/12 11:32:19;;;;;;;5.63;1.88;;;6.10;99.90;;;;;;6281994;22;20090;-92
2022/02/12 11:35:06;;;;;;;10.55;2.63;;;6.10;99.90;;;;;;6282250;22;20189;-91
2022/02/12 11:37:36;;;;;;;7.72;1.77;;;6.10;99.90;;;;;;6290809;22;20013;-92
2022/02/12 11:40:13;;;;;;;9.00;1.52;;;6.10;99.90;;;;;;6283153;22;20524;-91
2022/02/12 11:42:46;;;;;;;7.13;1.60;;;6.20;99.90;;;;;;6282515;22;20005;-92
2022/02/12 11:45:34;;;;;;;8.90;2.22;;;6.10;99.90;;;;;;6281995;22;20015;-91
2022/02/12 11:48:25;;;;;;;3.17;1.40;;;6.20;99.90;;;;;;6281812;22;20007;-91
2022/02/12 11:51:04;;;;;;;7.38;1.92;;;6.10;99.90;;;;;;6281655;22;20007;-92
2022/02/12 11:53:54;;;;;;;5.28;1.17;;;6.10;99.90;;;;;;6281776;22;20027;-91
2022/02/12 11:56:20;;;;;;;8.00;1.80;;;6.10;99.90;;;;;;6282162;22;20331;-90
2022/02/12 11:58:45;;;;;;;4.55;1.80;;;6.10;99.90;;;;;;6282000;22;20006;-92
2022/02/12 12:01:32;;;;;;;11.40;2.40;;;6.10;99.90;;;;;;6282250;22;20004;-91
2022/02/12 12:04:14;;;;;;;7.45;1.50;;;6.10;99.90;;;;;;6281703;22;20003;-93
2022/02/12 12:07:01;;;;;;;9.35;1.75;;;6.00;99.90;;;;;;6282254;22;20003;-93
2022/02/12 12:09:31;;;;;;;14.05;1.65;;;6.00;99.90;;;;;;6282097;22;20363;-93
2022/02/12 12:12:19;;;;;;;15.07;2.00;;;5.90;99.90;;;;;;6282080;22;20068;-93
2022/02/12 12:14:46;;;;;;;10.93;1.90;;;5.90;99.90;;;;;;6290548;22;20007;-93
2022/02/12 12:17:14;;;;;;;9.38;2.75;;;5.80;99.90;;;;;;6286507;22;20030;-93
2022/02/12 12:19:42;;;;;;;7.88;1.02;;;5.80;99.90;;;;;;6282172;22;20312;-93
2022/02/12 12:22:10;;;;;;;8.48;2.55;;;5.70;99.90;;;;;;6283849;22;20173;-94
2022/02/12 12:24:37;;;;;;;6.95;1.90;;;5.70;99.90;;;;;;6285209;22;20030;-92
2022/02/12 12:27:04;;;;;;;8.20;1.30;;;5.70;99.90;;;;;;6285175;22;20008;-93
2022/02/12 12:32:16;;;;;;;3.08;1.52;;;5.60;99.90;;;;;;6313487;22;20099;-93
2022/02/12 12:35:03;;;;;;;10.15;1.83;;;5.60;99.90;;;;;;6286476;22;20442;-94
2022/02/12 12:37:33;;;;;;;2.85;1.20;;;5.50;99.90;;;;;;6286894;22;20003;-93
2022/02/12 12:40:01;;;;;;;12.25;2.33;;;5.50;99.90;;;;;;6284472;22;20003;-93
2022/02/12 12:42:28;;;;;;;9.38;1.50;;;5.50;99.90;;;;;;6283286;22;20093;-93
2022/02/12 12:45:11;;;;;;;11.77;1.88;;;5.50;99.90;;;;;;6282366;22;20434;-92
2022/02/12 12:47:47;;;;;;;14.75;2.08;;;5.50;99.90;;;;;;6282125;22;20076;-92
2022/02/12 12:50:13;;;;;;;8.07;1.90;;;5.50;99.90;;;;;;6282874;22;20034;-92
2022/02/12 12:52:39;;;;;;;15.27;3.13;;;5.50;99.90;;;;;;6283001;22;19999;-92
2022/02/12 12:55:17;;;;;;;9.40;2.95;;;5.50;99.90;;;;;;6283696;22;20007;-94
2022/02/12 12:57:45;;;;;;;11.88;2.15;;;5.50;99.90;;;;;;6282887;22;20007;-92
2022/02/12 13:00:13;;;;;;;7.63;2.03;;;5.50;99.90;;;;;;6282540;22;20196;-92
2022/02/12 13:02:50;;;;;;;12.63;2.78;;;5.50;99.90;;;;;;6282596;22;20033;-92
2022/02/12 13:05:26;;;;;;;8.60;2.00;;;5.60;99.90;;;;;;6282542;22;20018;-92
2022/02/12 13:07:57;;;;;;;12.60;3.22;;;5.60;99.90;;;;;;6283609;22;20326;-92
2022/02/12 13:10:24;;;;;;;;;;;5.60;99.90;;;;;;6283873;22;20661;-93